Terminal Aerodrome Forecast
Issued by NWS Bismarck, ND

Current Version | Previous Version | Text Only | Print | Product List | Glossary On
Versions: 1 2 3 4 5 6 7 8 9 10 11 12 13 14 15 16 17 18 19 20 21 22 23 24 25 26 27
000
FTUS43 KBIS 301200 AAA
TAFBIS
TAF AMD
KBIS 301204Z 3012/3112 00000KT 1/4SM FG VV002
      TEMPO 3012/3015 00000KT 1SM BR SCT002
     FM301500 15010KT P6SM SKC
     FM310300 14011KT P6SM -SHRA VCTS BKN050CB
     FM310900 32008KT P6SM VCSH OVC030=

USA.gov is the U.S. government's official web portal to all federal, state and local government web resources and services.